Airfield :
LOGIN :

Register | Disclaimer

   EN    FR    IT 

 










Legend :    VFR   Marginal VFR   IFR   Intensive IFR   Very Intensive IFR
Visi :
Ceiling :
>= 8 km
>= 3000ft
5 to 8 km
1000 to 3000 ft
1500m to 5 km
500 to 1000 ft
800 to 1500m
200 to 500 ft
< 800m
< 200 ft
Symbols :   Thunderstorms  Fog  Heavy snow  Heavy precipitations  Wind > 20 kt
SIGMETs :     Misc.  Thunderstorms  Icing  Turbulence  Mountain Waves  Volcanic Ashes







- Airport Elevation : -15 ft
- IATA code : RTM


EHRD - Rotterdam Zestienhoven

CURRENT METAR :
  • 251725Z AUTO 35009KT 300V040 9999 NCD 18/11 Q1025 NOSIG

EXPIRED METARs :
  • 251655Z AUTO 34008KT 280V030 9999 NCD 19/11 Q1025 NOSIG
  • 251625Z AUTO 34010KT 280V020 9999 NCD 19/11 Q1025 NOSIG
  • 251555Z AUTO 34009KT 280V020 9999 NCD 19/10 Q1025 NOSIG
  • 251525Z AUTO 34009KT 280V040 9999 NCD 20/10 Q1025 NOSIG
  • 251455Z AUTO 33009KT 270V050 9999 NCD 20/09 Q1025 NOSIG

TAF TAF EHRD
Valid from the 25 at 18:00 until the 27 at 00:00 UTC


251713Z 2518/2624 34010KT CAVOK
BECMG 2518/2521 35005KT
PROB40
TEMPO 2600/2605 2500 MIFG
BECMG 2606/2609 36010KT
BECMG 2619/2622 01005KT
No reported NOTAMs for that airfield.



MET'MAP, your aeronautical weather chart ! - Copyright ORBIFLY December 2007 - Disclaimer

ORBIFLY MET'MAP TEAM :

Programming & Development : Alexandra Zaïnal
Concept & Development : Baudouin d'Aumeries
Co-Development & Prog : Marc-Olivier Méhu
Technical & hardware support : Manuel Goepfert

Contact : metmap@orbifly.com




SOURCES & CREDITS :

   NOAA